Bushy Park, Australia
Current Conditions -  °F | °C
As of 7:00 AM on Tuesday 25 Nov 2014 (Local Time) from YMHB Reporting Station
Scattered Clouds Scattered Clouds  
Wind Chill: 55°   Ceiling: Unl
Heat Index: 55°   Visibility: 6mi
Dew Point: 39°   Wind: 17mph
Humidity: 54%   Direction: 290°WNW
Pressure: 29.59"   Gusts: NA
Location:  42.7°S, 146.88°E
Report Text: YMHB 242000Z 29015KT 9999 SCT045 13/04 Q1002
Loading
Personal Weather Stations






























Interactive Weather Map New forecast layout! Learn more

10-Day Weather Forecast

Advertisements
Track Severe Weather on mobile